Conde, Brazil
Current Conditions -  °F | °C
As of 2:00 AM on Saturday 25 Oct 2014 (Local Time) from SBAR Reporting Station
Light Rain Light Rain  
Wind Chill: 73°   Ceiling: 7000
Heat Index: 73°   Visibility: 3mi
Dew Point: 68°   Wind: 12mph
Humidity: 83%   Direction: 140°SE
Pressure: 29.91"   Gusts: NA
Location:  11.81°S, 37.61°W
Report Text: SBAR 250500Z 14010KT 5000 -RA SCT015 BKN070 23/20 Q1013
Loading
Personal Weather Stations






























Interactive Weather Map
Tropical Storm Tracking
New forecast layout! Learn more

10-Day Weather Forecast

Advertisements
Track Severe Weather on mobile